Laura B — WDI9376 — position and weather

sailwx.info

Track history (hours):
 
Tides and Currents Weather Stations Pressure Air Temp Water Temp Dewpoint Dewpoint Depression Visibility Wind Speed Wind Dir Waves Ship Positions

Laura B

Owner: G & H TOWING COMPANY, Galveston, TX. More information available from US FCC via Universal Licensing System and Coast Guard Vessel Documentation Center.

Last reported at 2017-Nov-19 08:42 UTC. Time now 2017-Nov-21 23:06 UTC.
Position N 29°45' W 095°07'.

Length 24 m; draft 4.9 m.

Type: Tug. MMSI: 367748030.

Date/timePositionNaut miles runAvg speedWind from/ knotsBaromVisibWave heightAir tempDewpointWater temp
2017-Nov-19 08:42N 29°45' W 095°07'1 0.0
2017-Nov-18 12:51N 29°45' W 095°06'0 0.2
2017-Nov-18 12:29N 29°45' W 095°06'3 0.3
2017-Nov-18 00:29N 29°44' W 095°03'1 0.6
2017-Nov-17 23:05N 29°44' W 095°02'0 5.7
2017-Nov-17 23:00N 29°44' W 095°02'3 5.1
2017-Nov-17 22:23N 29°46' W 095°05'4 0.5
2017-Nov-17 14:22N 29°44' W 095°01'1 0.3
2017-Nov-17 09:37N 29°42' W 095°01'2 7.8
2017-Nov-17 09:25N 29°44' W 095°02'1 0.3
2017-Nov-17 04:23N 29°44' W 095°03'1 2.8
2017-Nov-17 03:54N 29°44' W 095°02'2 3.9
2017-Nov-17 03:28N 29°42' W 095°01'0 0.0
2017-Nov-17 00:19N 29°42' W 095°01'1 1.1
2017-Nov-16 23:06N 29°44' W 095°01'1 3.7
2017-Nov-16 22:52N 29°43' W 095°01'1 1.7
2017-Nov-16 22:30N 29°42' W 095°01'5 6.9
2017-Nov-16 21:45N 29°46' W 095°05'0 0.0
2017-Nov-16 04:17N 29°45' W 095°06'1 1.7
2017-Nov-16 03:41N 29°45' W 095°07'2 0.4
2017-Nov-15 22:53N 29°46' W 095°05'4 4.4
2017-Nov-15 22:04N 29°44' W 095°09'3 7.6
2017-Nov-15 21:43N 29°45' W 095°12'1 1.7
2017-Nov-15 21:20N 29°44' W 095°12'0 0.7
2017-Nov-15 20:51N 29°44' W 095°12'1 1.5
2017-Nov-15 19:59N 29°45' W 095°11'8 1.0
2017-Nov-15 11:43N 29°44' W 095°01'2 8.8
2017-Nov-15 11:30N 29°44' W 095°03'6 0.2
2017-Nov-14 13:05N 29°45' W 095°10'1 5.1
2017-Nov-14 12:56N 29°44' W 095°09'2 0.2
2017-Nov-14 01:36N 29°44' W 095°07'1 0.3
2017-Nov-13 23:06N 29°45' W 095°06'0 2.4
2017-Nov-13 23:00N 29°45' W 095°06'0 0.0
2017-Nov-13 22:22N 29°45' W 095°06'0 0.0
2017-Nov-13 21:59N 29°45' W 095°06'3 0.1
2017-Nov-13 00:35N 29°44' W 095°10'0 0.5
2017-Nov-13 00:18N 29°45' W 095°10'1 4.1
2017-Nov-12 23:59N 29°44' W 095°08'1 0.4
2017-Nov-12 22:02N 29°44' W 095°07'0 0.3
2017-Nov-12 22:00N 29°44' W 095°07'1 0.9
2017-Nov-12 21:11N 29°45' W 095°07'3 0.7
2017-Nov-12 16:47N 29°44' W 095°03'0 0.3
2017-Nov-12 16:30N 29°44' W 095°03'2 3.6
2017-Nov-12 15:49N 29°42' W 095°01'0 0.3
2017-Nov-12 15:30N 29°42' W 095°01'0 0.0
2017-Nov-12 14:58N 29°42' W 095°01'0 0.0
2017-Nov-12 14:30N 29°42' W 095°01'0 0.0
2017-Nov-12 14:00N 29°42' W 095°01'0 0.0
2017-Nov-12 13:30N 29°42' W 095°01'2 3.7
2017-Nov-12 12:59N 29°44' W 095°02'1 0.9
2017-Nov-12 12:00N 29°44' W 095°03'4 0.5
2017-Nov-12 03:58N 29°44' W 095°08'0 0.0
2017-Nov-11 19:11N 29°44' W 095°08'1 3.9
2017-Nov-11 18:49N 29°45' W 095°06'0 0.0
2017-Nov-11 09:20N 29°45' W 095°07'1 2.5
2017-Nov-11 08:54N 29°44' W 095°08'3 2.7
2017-Nov-11 07:39N 29°45' W 095°12'1 2.4
2017-Nov-11 07:26N 29°44' W 095°12'1 2.0
2017-Nov-11 06:59N 29°45' W 095°11'1 0.7
2017-Nov-11 06:09N 29°45' W 095°11'2 7.9
2017-Nov-11 05:53N 29°44' W 095°13'2 0.5
2017-Nov-11 02:00N 29°43' W 095°15'1 2.8
2017-Nov-11 01:30N 29°44' W 095°17'0 0.4
2017-Nov-11 00:58N 29°44' W 095°16'0 0.7
2017-Nov-11 00:23N 29°44' W 095°17'0 1.2
2017-Nov-11 00:00N 29°44' W 095°16'1 1.4
2017-Nov-10 23:29N 29°44' W 095°15'1 0.3
2017-Nov-10 21:27N 29°44' W 095°16'2 1.4
2017-Nov-10 20:16N 29°43' W 095°14'2 4.9
2017-Nov-10 19:56N 29°44' W 095°13'4 0.5
2017-Nov-10 12:15N 29°44' W 095°17'0 0.0
2017-Nov-10 10:17N 29°44' W 095°17'2 6.0
2017-Nov-10 10:00N 29°43' W 095°15'1 1.9
2017-Nov-10 09:29N 29°43' W 095°14'0 0.0
2017-Nov-10 09:00N 29°43' W 095°14'2 3.5
2017-Nov-10 08:30N 29°44' W 095°16'0 0.2
2017-Nov-10 06:26N 29°44' W 095°16'0 0.5
2017-Nov-10 06:00N 29°44' W 095°16'1 2.4
2017-Nov-10 05:30N 29°43' W 095°15'1 0.2
2017-Nov-10 00:56N 29°44' W 095°16'2 2.8
2017-Nov-10 00:10N 29°44' W 095°14'0 0.6
2017-Nov-10 00:00N 29°44' W 095°14'0 0.1
2017-Nov-09 23:29N 29°44' W 095°14'3 1.3
2017-Nov-09 20:54N 29°45' W 095°10'1 1.1
2017-Nov-09 19:35N 29°44' W 095°09'1 0.2
2017-Nov-09 16:58N 29°44' W 095°08'6 4.2
2017-Nov-09 15:26N 29°42' W 095°01'1 0.9
2017-Nov-09 13:54N 29°42' W 094°59'1 2.1
2017-Nov-09 13:30N 29°41' W 094°60'0 0.1
2017-Nov-09 13:00N 29°41' W 095°00'1 2.4
2017-Nov-09 12:30N 29°42' W 095°00'  
Track history (hours):
 
Tides and Currents Weather Stations Pressure Air Temp Water Temp Dewpoint Dewpoint Depression Visibility Wind Speed Wind Dir Waves Ship Positions

Laura B

Owner: G & H TOWING COMPANY, Galveston, TX. More information available from US FCC via Universal Licensing System and Coast Guard Vessel Documentation Center.

Last reported at 2017-Nov-19 08:42 UTC. Time now 2017-Nov-21 23:06 UTC.
Position N 29°45' W 095°07'.

Length 24 m; draft 4.9 m.

Type: Tug. MMSI: 367748030.

Date/timePositionNaut miles runAvg speedWind from/ knotsBaromVisibWave heightAir tempDewpointWater temp
2017-Nov-19 08:42N 29°45' W 095°07'1 0.0
2017-Nov-18 12:51N 29°45' W 095°06'0 0.2
2017-Nov-18 12:29N 29°45' W 095°06'3 0.3
2017-Nov-18 00:29N 29°44' W 095°03'1 0.6
2017-Nov-17 23:05N 29°44' W 095°02'0 5.7
2017-Nov-17 23:00N 29°44' W 095°02'3 5.1
2017-Nov-17 22:23N 29°46' W 095°05'4 0.5
2017-Nov-17 14:22N 29°44' W 095°01'1 0.3
2017-Nov-17 09:37N 29°42' W 095°01'2 7.8
2017-Nov-17 09:25N 29°44' W 095°02'1 0.3
2017-Nov-17 04:23N 29°44' W 095°03'1 2.8
2017-Nov-17 03:54N 29°44' W 095°02'2 3.9
2017-Nov-17 03:28N 29°42' W 095°01'0 0.0
2017-Nov-17 00:19N 29°42' W 095°01'1 1.1
2017-Nov-16 23:06N 29°44' W 095°01'1 3.7
2017-Nov-16 22:52N 29°43' W 095°01'1 1.7
2017-Nov-16 22:30N 29°42' W 095°01'5 6.9
2017-Nov-16 21:45N 29°46' W 095°05'0 0.0
2017-Nov-16 04:17N 29°45' W 095°06'1 1.7
2017-Nov-16 03:41N 29°45' W 095°07'2 0.4
2017-Nov-15 22:53N 29°46' W 095°05'4 4.4
2017-Nov-15 22:04N 29°44' W 095°09'3 7.6
2017-Nov-15 21:43N 29°45' W 095°12'1 1.7
2017-Nov-15 21:20N 29°44' W 095°12'0 0.7
2017-Nov-15 20:51N 29°44' W 095°12'1 1.5
2017-Nov-15 19:59N 29°45' W 095°11'8 1.0
2017-Nov-15 11:43N 29°44' W 095°01'2 8.8
2017-Nov-15 11:30N 29°44' W 095°03'6 0.2
2017-Nov-14 13:05N 29°45' W 095°10'1 5.1
2017-Nov-14 12:56N 29°44' W 095°09'2 0.2
2017-Nov-14 01:36N 29°44' W 095°07'1 0.3
2017-Nov-13 23:06N 29°45' W 095°06'0 2.4
2017-Nov-13 23:00N 29°45' W 095°06'0 0.0
2017-Nov-13 22:22N 29°45' W 095°06'0 0.0
2017-Nov-13 21:59N 29°45' W 095°06'3 0.1
2017-Nov-13 00:35N 29°44' W 095°10'0 0.5
2017-Nov-13 00:18N 29°45' W 095°10'1 4.1
2017-Nov-12 23:59N 29°44' W 095°08'1 0.4
2017-Nov-12 22:02N 29°44' W 095°07'0 0.3
2017-Nov-12 22:00N 29°44' W 095°07'1 0.9
2017-Nov-12 21:11N 29°45' W 095°07'3 0.7
2017-Nov-12 16:47N 29°44' W 095°03'0 0.3
2017-Nov-12 16:30N 29°44' W 095°03'2 3.6
2017-Nov-12 15:49N 29°42' W 095°01'0 0.3
2017-Nov-12 15:30N 29°42' W 095°01'0 0.0
2017-Nov-12 14:58N 29°42' W 095°01'0 0.0
2017-Nov-12 14:30N 29°42' W 095°01'0 0.0
2017-Nov-12 14:00N 29°42' W 095°01'0 0.0
2017-Nov-12 13:30N 29°42' W 095°01'2 3.7
2017-Nov-12 12:59N 29°44' W 095°02'1 0.9
2017-Nov-12 12:00N 29°44' W 095°03'4 0.5
2017-Nov-12 03:58N 29°44' W 095°08'0 0.0
2017-Nov-11 19:11N 29°44' W 095°08'1 3.9
2017-Nov-11 18:49N 29°45' W 095°06'0 0.0
2017-Nov-11 09:20N 29°45' W 095°07'1 2.5
2017-Nov-11 08:54N 29°44' W 095°08'3 2.7
2017-Nov-11 07:39N 29°45' W 095°12'1 2.4
2017-Nov-11 07:26N 29°44' W 095°12'1 2.0
2017-Nov-11 06:59N 29°45' W 095°11'1 0.7
2017-Nov-11 06:09N 29°45' W 095°11'2 7.9
2017-Nov-11 05:53N 29°44' W 095°13'2 0.5
2017-Nov-11 02:00N 29°43' W 095°15'1 2.8
2017-Nov-11 01:30N 29°44' W 095°17'0 0.4
2017-Nov-11 00:58N 29°44' W 095°16'0 0.7
2017-Nov-11 00:23N 29°44' W 095°17'0 1.2
2017-Nov-11 00:00N 29°44' W 095°16'1 1.4
2017-Nov-10 23:29N 29°44' W 095°15'1 0.3
2017-Nov-10 21:27N 29°44' W 095°16'2 1.4
2017-Nov-10 20:16N 29°43' W 095°14'2 4.9
2017-Nov-10 19:56N 29°44' W 095°13'4 0.5
2017-Nov-10 12:15N 29°44' W 095°17'0 0.0
2017-Nov-10 10:17N 29°44' W 095°17'2 6.0
2017-Nov-10 10:00N 29°43' W 095°15'1 1.9
2017-Nov-10 09:29N 29°43' W 095°14'0 0.0
2017-Nov-10 09:00N 29°43' W 095°14'2 3.5
2017-Nov-10 08:30N 29°44' W 095°16'0 0.2
2017-Nov-10 06:26N 29°44' W 095°16'0 0.5
2017-Nov-10 06:00N 29°44' W 095°16'1 2.4
2017-Nov-10 05:30N 29°43' W 095°15'1 0.2
2017-Nov-10 00:56N 29°44' W 095°16'2 2.8
2017-Nov-10 00:10N 29°44' W 095°14'0 0.6
2017-Nov-10 00:00N 29°44' W 095°14'0 0.1
2017-Nov-09 23:29N 29°44' W 095°14'3 1.3
2017-Nov-09 20:54N 29°45' W 095°10'1 1.1
2017-Nov-09 19:35N 29°44' W 095°09'1 0.2
2017-Nov-09 16:58N 29°44' W 095°08'6 4.2
2017-Nov-09 15:26N 29°42' W 095°01'1 0.9
2017-Nov-09 13:54N 29°42' W 094°59'1 2.1
2017-Nov-09 13:30N 29°41' W 094°60'0 0.1
2017-Nov-09 13:00N 29°41' W 095°00'1 2.4
2017-Nov-09 12:30N 29°42' W 095°00'  

Dump ship's entire track history